Time;durP1;ratioP1;P1;durP2;ratioP2;P2;SDS_P1;SDS_P2;PMS_P1;PMS_P2;Temp;Humidity;BMP_temperature;BMP_pressure;BME280_temperature;BME280_humidity;BME280_pressure;Samples;Min_cycle;Max_cycle;Signal;HPM_P1;HPM_P2
2022/06/11 00:01:23;;;;;;;5.07;2.40;;;12.60;99.90;;;;;;5035814;28;20108;-89
2022/06/11 00:03:51;;;;;;;3.42;2.25;;;12.60;99.90;;;;;;5035833;28;20029;-89
2022/06/11 00:06:18;;;;;;;3.67;2.75;;;12.60;99.90;;;;;;5036483;28;20060;-88
2022/06/11 00:08:44;;;;;;;3.75;2.47;;;12.70;99.90;;;;;;5036732;28;20032;-89
2022/06/11 00:11:10;;;;;;;3.17;2.40;;;12.70;99.90;;;;;;5035961;28;20025;-89
2022/06/11 00:13:38;;;;;;;4.25;1.98;;;12.70;99.90;;;;;;5035889;28;20025;-89
2022/06/11 00:16:04;;;;;;;3.22;2.15;;;12.80;99.90;;;;;;5035658;28;20504;-89
2022/06/11 00:18:31;;;;;;;3.08;2.25;;;12.80;99.90;;;;;;5035786;28;20028;-89
2022/06/11 00:20:57;;;;;;;3.50;2.30;;;12.80;99.90;;;;;;5035830;28;20025;-89
2022/06/11 00:23:23;;;;;;;4.28;2.55;;;12.80;99.90;;;;;;5035615;28;20470;-89
2022/06/11 00:25:48;;;;;;;3.17;2.15;;;12.80;99.90;;;;;;5036416;28;20123;-89
2022/06/11 00:28:14;;;;;;;6.18;2.17;;;12.80;99.90;;;;;;5035600;28;20068;-89
2022/06/11 00:30:40;;;;;;;3.42;2.10;;;12.80;99.90;;;;;;5035553;28;20025;-88
2022/06/11 00:33:07;;;;;;;4.95;2.17;;;12.80;99.90;;;;;;5035540;28;20670;-88
2022/06/11 00:35:34;;;;;;;4.13;2.42;;;12.70;99.90;;;;;;5035365;28;20077;-88
2022/06/11 00:38:01;;;;;;;2.50;1.92;;;12.70;99.90;;;;;;5035769;28;20409;-89
2022/06/11 00:40:30;;;;;;;3.75;2.40;;;12.70;99.90;;;;;;5035485;28;20032;-88
2022/06/11 00:42:56;;;;;;;2.92;2.05;;;12.60;99.90;;;;;;5035439;28;20113;-89
2022/06/11 00:45:27;;;;;;;3.25;2.20;;;12.60;99.90;;;;;;5035360;28;20048;-88
2022/06/11 00:48:12;;;;;;;3.97;2.42;;;12.60;99.90;;;;;;5035586;28;20028;-88
2022/06/11 00:50:45;;;;;;;2.67;2.00;;;12.60;99.90;;;;;;5035439;28;20027;-87
2022/06/11 00:53:17;;;;;;;3.10;2.05;;;12.60;99.90;;;;;;5053166;28;20017;-87
2022/06/11 00:55:45;;;;;;;3.15;2.15;;;12.60;99.90;;;;;;5053159;28;20029;-87
2022/06/11 00:58:21;;;;;;;4.00;2.17;;;12.60;99.90;;;;;;5035193;28;20032;-88
2022/06/11 01:00:55;;;;;;;3.50;2.42;;;12.50;99.90;;;;;;5035439;28;20132;-87
2022/06/11 01:03:35;;;;;;;3.35;2.30;;;12.50;99.90;;;;;;5064823;28;20017;-88
2022/06/11 01:06:51;;;;;;;5.07;2.22;;;12.50;99.90;;;;;;5073608;28;20048;-88
2022/06/11 01:09:28;;;;;;;3.00;2.40;;;12.50;99.90;;;;;;5071960;28;20033;-88
2022/06/11 01:12:12;;;;;;;4.25;2.13;;;12.50;99.90;;;;;;5071841;28;20024;-88
2022/06/11 01:14:59;;;;;;;3.50;1.95;;;12.40;99.90;;;;;;5057780;28;20389;-87
2022/06/11 01:18:01;;;;;;;3.30;2.08;;;12.50;99.90;;;;;;5062784;28;20033;-87
2022/06/11 01:20:41;;;;;;;4.00;2.40;;;12.50;99.90;;;;;;5053144;28;20024;-87
2022/06/11 01:23:21;;;;;;;4.65;2.17;;;12.40;99.90;;;;;;5059006;28;20021;-88
2022/06/11 01:26:09;;;;;;;3.45;2.35;;;12.40;99.90;;;;;;5053619;28;20033;-88
2022/06/11 01:29:05;;;;;;;3.78;2.47;;;12.40;99.90;;;;;;5057669;28;20029;-88
2022/06/11 01:32:14;;;;;;;3.47;2.35;;;12.30;99.90;;;;;;5075414;28;20044;-88
2022/06/11 01:34:48;;;;;;;2.97;2.15;;;12.30;99.90;;;;;;5031625;28;20037;-88
2022/06/11 01:37:20;;;;;;;4.93;2.00;;;12.30;99.90;;;;;;5074967;28;20473;-88
2022/06/11 01:39:53;;;;;;;3.75;2.20;;;12.30;99.90;;;;;;5075285;28;20115;-88
2022/06/11 01:42:28;;;;;;;4.38;1.95;;;12.20;99.90;;;;;;5075235;28;20082;-88
2022/06/11 01:45:25;;;;;;;3.53;2.08;;;12.20;99.90;;;;;;5075065;28;20020;-88
2022/06/11 01:47:52;;;;;;;3.00;1.80;;;12.20;99.90;;;;;;5074310;28;20555;-88
2022/06/11 01:50:22;;;;;;;3.63;2.13;;;12.20;99.90;;;;;;5074981;28;20039;-88
2022/06/11 01:52:51;;;;;;;3.10;2.00;;;12.10;99.90;;;;;;5075102;28;20131;-88
2022/06/11 01:55:26;;;;;;;3.72;2.42;;;12.10;99.90;;;;;;5074962;28;20024;-88
2022/06/11 01:58:13;;;;;;;5.07;3.33;;;12.00;99.90;;;;;;5074895;28;20031;-88
2022/06/11 02:01:07;;;;;;;5.55;4.20;;;11.90;99.90;;;;;;5074914;28;20024;-88
2022/06/11 02:03:52;;;;;;;8.60;7.70;;;11.90;99.90;;;;;;5074756;28;20130;-88
2022/06/11 02:06:37;;;;;;;20.88;9.18;;;11.70;99.90;;;;;;5075066;28;20074;-88
2022/06/11 02:09:22;;;;;;;11.85;8.23;;;11.60;99.90;;;;;;5074730;28;20029;-88
2022/06/11 02:11:54;;;;;;;8.77;6.32;;;11.40;99.90;;;;;;5074735;28;20037;-88
2022/06/11 02:14:44;;;;;;;5.03;4.00;;;11.30;99.90;;;;;;5074719;28;20029;-88
2022/06/11 02:17:18;;;;;;;5.20;3.25;;;11.20;99.90;;;;;;5074876;28;20031;-88
2022/06/11 02:19:54;;;;;;;5.18;2.90;;;11.10;99.90;;;;;;5075089;28;20481;-89
2022/06/11 02:22:47;;;;;;;3.92;2.90;;;11.00;99.90;;;;;;5074593;28;20052;-88
2022/06/11 02:25:23;;;;;;;4.05;2.97;;;10.90;99.90;;;;;;5073193;28;20074;-88
2022/06/11 02:27:52;;;;;;;3.80;2.63;;;10.90;99.90;;;;;;5074481;28;20025;-88
2022/06/11 02:30:21;;;;;;;4.30;2.67;;;10.90;99.90;;;;;;5074331;28;20024;-88
2022/06/11 02:32:47;;;;;;;4.03;2.63;;;10.90;99.90;;;;;;5074626;28;20396;-87
2022/06/11 02:35:35;;;;;;;3.08;2.30;;;10.90;99.90;;;;;;5074386;28;20115;-87
2022/06/11 02:38:03;;;;;;;5.10;2.53;;;11.00;99.90;;;;;;5074087;28;20119;-87
2022/06/11 02:40:35;;;;;;;4.15;2.40;;;11.00;99.90;;;;;;5074039;28;20066;-88
2022/06/11 02:43:01;;;;;;;4.18;2.70;;;11.10;99.90;;;;;;5074156;28;20032;-88
2022/06/11 02:45:27;;;;;;;4.10;2.40;;;11.10;99.90;;;;;;5073972;28;20506;-88
2022/06/11 02:47:53;;;;;;;5.82;2.53;;;11.10;99.90;;;;;;5073891;28;20477;-88
2022/06/11 02:50:27;;;;;;;4.03;2.60;;;11.20;99.90;;;;;;5075160;28;20016;-88
2022/06/11 02:52:54;;;;;;;4.07;2.20;;;11.20;99.90;;;;;;5075117;28;20377;-88
2022/06/11 02:55:20;;;;;;;3.95;2.10;;;11.20;99.90;;;;;;5074945;28;20028;-88
2022/06/11 02:57:46;;;;;;;3.38;1.88;;;11.10;99.90;;;;;;5073594;28;20028;-87
2022/06/11 03:00:17;;;;;;;4.07;1.92;;;11.10;99.90;;;;;;5073659;28;20032;-87
2022/06/11 03:02:46;;;;;;;3.45;2.10;;;11.10;99.90;;;;;;5073759;28;20047;-87
2022/06/11 03:05:14;;;;;;;3.25;2.03;;;11.10;99.90;;;;;;5074797;28;20092;-87
2022/06/11 03:07:39;;;;;;;4.60;1.90;;;11.10;99.90;;;;;;5073531;28;20020;-87
2022/06/11 03:10:05;;;;;;;3.25;2.28;;;11.00;99.90;;;;;;5073477;28;20046;-88
2022/06/11 03:12:31;;;;;;;3.10;2.20;;;11.00;99.90;;;;;;5073467;28;20031;-87
2022/06/11 03:14:57;;;;;;;3.63;2.53;;;10.90;99.90;;;;;;5073336;28;20456;-88
2022/06/11 03:17:23;;;;;;;13.95;7.13;;;10.90;99.90;;;;;;5073335;28;20029;-87
2022/06/11 03:19:49;;;;;;;19.05;9.48;;;10.80;99.90;;;;;;5073410;28;20032;-87
2022/06/11 03:22:17;;;;;;;23.88;12.63;;;10.70;99.90;;;;;;5073540;28;20021;-86
2022/06/11 03:24:44;;;;;;;16.27;8.93;;;10.70;99.90;;;;;;5073059;28;20476;-88
2022/06/11 03:27:10;;;;;;;12.75;6.43;;;10.70;99.90;;;;;;5073067;28;20032;-88
2022/06/11 03:29:35;;;;;;;7.60;3.90;;;10.70;99.90;;;;;;5073490;28;20028;-87
2022/06/11 03:32:02;;;;;;;5.00;3.05;;;10.70;99.90;;;;;;5073247;28;20127;-88
2022/06/11 03:34:27;;;;;;;6.50;2.72;;;10.70;99.90;;;;;;5072868;28;20028;-87
2022/06/11 03:36:53;;;;;;;4.35;2.50;;;10.70;99.90;;;;;;5072577;28;20059;-88
2022/06/11 03:39:20;;;;;;;3.95;2.25;;;10.70;99.90;;;;;;5073209;28;20049;-88
2022/06/11 03:41:47;;;;;;;2.80;1.90;;;10.70;99.90;;;;;;5072926;28;20027;-88
2022/06/11 03:44:13;;;;;;;3.10;2.00;;;10.70;99.90;;;;;;5072898;28;20389;-88
2022/06/11 03:46:38;;;;;;;2.97;2.03;;;10.70;99.90;;;;;;5073207;28;20029;-88
2022/06/11 03:49:04;;;;;;;5.03;2.22;;;10.70;99.90;;;;;;5073617;28;20389;-87
2022/06/11 03:51:30;;;;;;;2.83;2.05;;;10.60;99.90;;;;;;5072622;28;20500;-87
2022/06/11 03:53:56;;;;;;;3.70;2.00;;;10.60;99.90;;;;;;5073317;28;20120;-88
2022/06/11 03:56:22;;;;;;;2.33;1.70;;;10.60;99.90;;;;;;5072557;28;20028;-88
2022/06/11 03:58:49;;;;;;;2.45;2.00;;;10.60;99.90;;;;;;5072535;28;20074;-89
2022/06/11 04:01:17;;;;;;;2.90;1.83;;;10.60;99.90;;;;;;5073818;28;20093;-89
2022/06/11 04:03:50;;;;;;;3.25;1.90;;;10.50;99.90;;;;;;5072510;28;20025;-89
2022/06/11 04:06:20;;;;;;;3.35;2.03;;;10.50;99.90;;;;;;5072585;28;20058;-89
2022/06/11 04:08:46;;;;;;;3.17;2.05;;;10.50;99.90;;;;;;5072598;28;20075;-89
2022/06/11 04:11:13;;;;;;;3.30;1.90;;;10.50;99.90;;;;;;5073901;28;20031;-88
2022/06/11 04:13:40;;;;;;;2.85;1.90;;;10.50;99.90;;;;;;5072278;28;20477;-88
2022/06/11 04:16:08;;;;;;;2.72;1.70;;;10.50;99.90;;;;;;5072041;28;20124;-88
2022/06/11 04:18:43;;;;;;;2.50;1.80;;;10.50;99.90;;;;;;5072309;28;20028;-88
2022/06/11 04:21:12;;;;;;;2.15;1.48;;;10.50;99.90;;;;;;5072349;28;20052;-88
2022/06/11 04:23:40;;;;;;;2.67;1.73;;;10.50;99.90;;;;;;5072108;28;20116;-88
2022/06/11 04:26:11;;;;;;;2.95;2.00;;;10.60;99.90;;;;;;5073345;28;20051;-88
2022/06/11 04:28:36;;;;;;;;;;;10.60;99.90;;;;;;5073896;28;20024;-88
2022/06/11 04:31:04;;;;;;;3.50;1.90;;;10.60;99.90;;;;;;5072145;28;19931;-87
2022/06/11 04:33:30;;;;;;;5.63;2.10;;;10.60;99.90;;;;;;5072094;28;20388;-88
2022/06/11 04:35:56;;;;;;;4.60;2.05;;;10.60;99.90;;;;;;5073131;28;20036;-88
2022/06/11 04:38:23;;;;;;;2.90;2.10;;;10.70;99.90;;;;;;5073266;28;20052;-88
2022/06/11 04:40:49;;;;;;;3.08;2.08;;;10.70;99.90;;;;;;5072278;28;20020;-88
2022/06/11 04:43:15;;;;;;;5.30;2.60;;;10.70;99.90;;;;;;5072204;28;20059;-88
2022/06/11 04:45:41;;;;;;;3.13;2.13;;;10.80;99.90;;;;;;5072202;28;20025;-89
2022/06/11 04:48:07;;;;;;;3.30;2.20;;;10.80;99.90;;;;;;5072679;28;20397;-88
2022/06/11 04:50:34;;;;;;;3.78;2.53;;;10.90;99.90;;;;;;5076339;28;20024;-88
2022/06/11 04:53:00;;;;;;;4.38;2.60;;;10.90;99.90;;;;;;5076111;28;20078;-88
2022/06/11 04:55:29;;;;;;;3.85;2.58;;;10.90;99.90;;;;;;5075895;28;20570;-87
2022/06/11 04:57:55;;;;;;;3.38;2.45;;;10.90;99.90;;;;;;5074226;28;20029;-88
2022/06/11 05:00:24;;;;;;;4.25;2.90;;;11.00;99.90;;;;;;5076412;28;20134;-88
2022/06/11 05:02:51;;;;;;;4.90;2.80;;;11.00;99.90;;;;;;5076502;28;20023;-88
2022/06/11 05:05:17;;;;;;;4.13;2.88;;;11.00;99.90;;;;;;5076045;28;20373;-89
2022/06/11 05:07:44;;;;;;;3.65;2.55;;;11.00;99.90;;;;;;5076088;28;20028;-87
2022/06/11 05:10:12;;;;;;;3.92;2.70;;;11.10;99.90;;;;;;5075336;28;20029;-86
2022/06/11 05:12:38;;;;;;;5.07;3.15;;;11.10;99.90;;;;;;5077054;28;20086;-86
2022/06/11 05:15:04;;;;;;;5.25;3.45;;;11.20;99.90;;;;;;5059095;28;20028;-87
2022/06/11 05:17:30;;;;;;;5.22;3.08;;;11.20;99.90;;;;;;5077061;28;20098;-87
2022/06/11 05:19:56;;;;;;;4.18;2.63;;;11.30;99.90;;;;;;5067382;28;20469;-86
2022/06/11 05:22:22;;;;;;;3.95;2.38;;;11.30;99.90;;;;;;5077213;28;20120;-86
2022/06/11 05:24:48;;;;;;;3.42;2.80;;;11.30;99.90;;;;;;5058935;28;20455;-88
2022/06/11 05:27:20;;;;;;;6.25;3.15;;;11.40;99.90;;;;;;5075899;28;20024;-87
2022/06/11 05:29:52;;;;;;;4.03;2.72;;;11.40;99.90;;;;;;5076771;28;20029;-87
2022/06/11 05:32:23;;;;;;;4.53;3.15;;;11.50;99.90;;;;;;5077070;28;20029;-87
2022/06/11 05:34:49;;;;;;;;;;;11.50;99.90;;;;;;5057618;28;20071;-87
2022/06/11 05:37:15;;;;;;;5.30;2.97;;;11.60;99.90;;;;;;5056727;28;19916;-85
2022/06/11 05:39:43;;;;;;;4.75;3.35;;;11.70;99.90;;;;;;5056972;28;20020;-86
2022/06/11 05:42:09;;;;;;;6.05;2.97;;;11.80;99.90;;;;;;5056761;28;20115;-87
2022/06/11 05:44:35;;;;;;;6.53;3.47;;;11.90;99.90;;;;;;5055874;28;20385;-86
2022/06/11 05:47:02;;;;;;;5.28;3.67;;;12.00;99.90;;;;;;5055540;28;20111;-86
2022/06/11 05:49:35;;;;;;;5.55;3.60;;;12.10;99.90;;;;;;5073782;28;20108;-87
2022/06/11 05:52:09;;;;;;;5.60;3.40;;;12.20;99.90;;;;;;5056689;28;20083;-87
2022/06/11 05:54:35;;;;;;;6.93;3.15;;;12.40;99.90;;;;;;5057514;28;20020;-88
2022/06/11 05:57:07;;;;;;;4.10;2.50;;;12.50;99.90;;;;;;5076454;28;20103;-88
2022/06/11 05:59:38;;;;;;;5.28;2.90;;;12.60;99.90;;;;;;5058890;28;20021;-88
2022/06/11 06:02:10;;;;;;;5.07;2.85;;;12.80;99.90;;;;;;5058294;28;20020;-88
2022/06/11 06:04:36;;;;;;;;;;;12.90;99.90;;;;;;5076536;28;20017;-88
2022/06/11 06:07:02;;;;;;;6.18;2.88;;;13.10;99.90;;;;;;5059418;28;20025;-88
2022/06/11 06:09:28;;;;;;;4.60;3.15;;;13.20;99.90;;;;;;5076317;28;20029;-88
2022/06/11 06:11:54;;;;;;;5.78;2.92;;;13.40;99.90;;;;;;5058352;28;20035;-87
2022/06/11 06:14:19;;;;;;;4.95;3.15;;;13.50;99.90;;;;;;5077925;28;20032;-88
2022/06/11 06:16:45;;;;;;;4.68;3.05;;;13.60;99.90;;;;;;5060054;28;20024;-88
2022/06/11 06:19:11;;;;;;;7.55;3.33;;;13.80;99.90;;;;;;5076179;28;20021;-88
2022/06/11 06:21:37;;;;;;;8.88;3.50;;;14.00;99.90;;;;;;5058025;28;20392;-88
2022/06/11 06:24:04;;;;;;;5.30;3.22;;;14.10;99.90;;;;;;5058013;28;20496;-88
2022/06/11 06:26:30;;;;;;;5.85;2.92;;;14.20;99.90;;;;;;5075876;28;20035;-87
2022/06/11 06:28:56;;;;;;;3.97;2.42;;;14.40;99.90;;;;;;5058110;28;20488;-88
2022/06/11 06:31:22;;;;;;;4.70;2.92;;;14.50;99.90;;;;;;5057718;28;20036;-88
2022/06/11 06:33:48;;;;;;;3.90;2.83;;;14.60;99.90;;;;;;5057473;28;20416;-87
2022/06/11 06:36:14;;;;;;;6.70;3.10;;;14.70;99.90;;;;;;5075269;28;20024;-88
2022/06/11 06:38:41;;;;;;;4.03;2.65;;;14.80;99.90;;;;;;5057536;28;20032;-87
2022/06/11 06:41:07;;;;;;;7.03;3.28;;;15.00;99.90;;;;;;5075762;28;20027;-88
2022/06/11 06:43:34;;;;;;;11.20;4.95;;;15.10;99.90;;;;;;5057406;28;20481;-88
2022/06/11 06:46:00;;;;;;;22.00;10.15;;;15.20;99.90;;;;;;5057366;28;20031;-88
2022/06/11 06:48:27;;;;;;;40.95;14.00;;;15.40;99.90;;;;;;5057277;28;20362;-87
2022/06/11 06:50:53;;;;;;;17.40;6.63;;;15.50;99.90;;;;;;5075354;28;20013;-87
2022/06/11 06:53:20;;;;;;;7.10;3.40;;;15.50;99.90;;;;;;5075265;28;20437;-87
2022/06/11 06:55:46;;;;;;;4.47;3.10;;;15.60;99.90;;;;;;5057014;28;20029;-87
2022/06/11 06:58:14;;;;;;;5.32;3.45;;;15.80;99.90;;;;;;5075028;28;20045;-88
2022/06/11 07:00:40;;;;;;;5.97;3.13;;;15.90;99.90;;;;;;5057111;28;20472;-88
2022/06/11 07:03:06;;;;;;;5.00;3.20;;;16.10;99.90;;;;;;5075031;28;20029;-88
2022/06/11 07:05:32;;;;;;;5.35;3.92;;;16.20;99.90;;;;;;5074865;28;20075;-88
2022/06/11 07:07:58;;;;;;;5.57;3.40;;;16.40;99.90;;;;;;5057097;28;20381;-88
2022/06/11 07:10:25;;;;;;;5.18;2.92;;;16.50;99.90;;;;;;5074868;28;20037;-87
2022/06/11 07:12:51;;;;;;;5.53;3.10;;;16.60;99.90;;;;;;5055931;28;20032;-88
2022/06/11 07:15:17;;;;;;;6.47;4.07;;;16.70;99.90;;;;;;5056541;28;20033;-88
2022/06/11 07:17:54;;;;;;;5.80;3.53;;;16.90;99.90;;;;;;5056567;28;20083;-88
2022/06/11 07:20:24;;;;;;;7.90;3.30;;;17.00;99.90;;;;;;5056830;28;20020;-87
2022/06/11 07:22:49;;;;;;;10.13;4.30;;;17.10;99.90;;;;;;5056718;28;20021;-87
2022/06/11 07:25:15;;;;;;;7.93;3.53;;;17.20;99.90;;;;;;5056619;28;20358;-88
2022/06/11 07:27:55;;;;;;;14.27;7.22;;;17.20;99.90;;;;;;5074656;28;20031;-88
2022/06/11 07:30:24;;;;;;;23.70;8.25;;;17.40;99.90;;;;;;5056632;28;20036;-87
2022/06/11 07:32:55;;;;;;;11.32;6.60;;;17.60;99.90;;;;;;5056385;28;20063;-87
2022/06/11 07:35:21;;;;;;;19.05;8.57;;;17.60;99.90;;;;;;5056410;28;20031;-88
2022/06/11 07:37:48;;;;;;;7.50;4.18;;;17.70;99.90;;;;;;5056285;28;20032;-88
2022/06/11 07:40:15;;;;;;;7.97;4.22;;;17.70;99.90;;;;;;5056370;28;20028;-88
2022/06/11 07:42:41;;;;;;;5.85;4.03;;;17.80;99.90;;;;;;5056279;28;20074;-87
2022/06/11 07:45:07;;;;;;;5.45;3.92;;;17.90;99.90;;;;;;5056143;28;20027;-88
2022/06/11 07:50:17;;;;;;;9.18;4.85;;;18.20;99.90;;;;;;5074442;28;20085;-88
2022/06/11 07:52:42;;;;;;;5.50;3.80;;;18.30;99.90;;;;;;5056161;28;20431;-88
2022/06/11 07:55:10;;;;;;;5.10;4.13;;;18.40;99.90;;;;;;5073954;28;20024;-88
2022/06/11 07:57:35;;;;;;;5.68;4.28;;;18.60;99.90;;;;;;5056312;28;20075;-88
2022/06/11 08:00:03;;;;;;;5.22;4.30;;;18.60;99.90;;;;;;5055892;28;20485;-88
2022/06/11 08:02:28;;;;;;;5.35;3.95;;;18.70;99.90;;;;;;5056161;28;20052;-88
2022/06/11 08:04:54;;;;;;;7.00;4.05;;;18.80;99.90;;;;;;5073974;28;20049;-88
2022/06/11 08:07:20;;;;;;;5.90;3.92;;;19.00;99.90;;;;;;5056070;28;20059;-88
2022/06/11 08:09:46;;;;;;;10.13;4.72;;;19.10;99.90;;;;;;5055862;28;20031;-88
2022/06/11 08:12:11;;;;;;;9.07;4.35;;;19.20;99.90;;;;;;5073650;28;20024;-88
2022/06/11 08:14:37;;;;;;;8.25;4.28;;;19.30;99.90;;;;;;5055639;28;20029;-88
2022/06/11 08:17:03;;;;;;;8.27;3.85;;;19.40;99.90;;;;;;5073560;28;20078;-88
2022/06/11 08:19:29;;;;;;;6.80;3.70;;;19.40;99.90;;;;;;5055697;28;20069;-88
2022/06/11 08:21:56;;;;;;;4.70;3.38;;;19.50;99.90;;;;;;5055954;28;20028;-88
2022/06/11 08:24:22;;;;;;;7.32;3.50;;;19.60;99.90;;;;;;5072550;28;20052;-88
2022/06/11 08:26:48;;;;;;;5.18;3.50;;;19.70;99.90;;;;;;5073566;28;20039;-88
2022/06/11 08:29:14;;;;;;;6.30;3.53;;;19.70;99.70;;;;;;5073537;28;20032;-88
2022/06/11 08:31:39;;;;;;;5.50;3.22;;;19.80;99.90;;;;;;5055383;28;20021;-88
2022/06/11 08:34:05;;;;;;;6.40;3.30;;;19.90;99.90;;;;;;5055367;28;20020;-88
2022/06/11 08:36:31;;;;;;;3.28;2.88;;;20.10;99.90;;;;;;5073555;28;20025;-88
2022/06/11 08:38:56;;;;;;;4.88;4.13;;;20.20;98.80;;;;;;5055760;28;20136;-88
2022/06/11 08:41:35;;;;;;;5.78;3.97;;;20.40;99.70;;;;;;5055497;28;20094;-88
2022/06/11 08:44:09;;;;;;;6.10;4.20;;;20.50;98.30;;;;;;5055336;28;20029;-88
2022/06/11 08:46:38;;;;;;;5.15;4.00;;;20.60;98.30;;;;;;5055373;28;20027;-88
2022/06/11 08:49:04;;;;;;;6.28;3.50;;;20.70;98.50;;;;;;5055270;28;20020;-88
2022/06/11 08:51:44;;;;;;;5.82;3.35;;;20.80;98.10;;;;;;5073287;28;20020;-88
2022/06/11 08:54:16;;;;;;;5.63;3.38;;;21.00;98.00;;;;;;5073213;28;20017;-87
2022/06/11 08:57:13;;;;;;;7.03;3.50;;;21.10;97.50;;;;;;5055145;28;20481;-88
2022/06/11 08:59:47;;;;;;;5.32;3.90;;;21.20;97.20;;;;;;5065775;28;20039;-88
2022/06/11 09:02:44;;;;;;;6.22;4.38;;;21.40;98.10;;;;;;5055357;28;20024;-88
2022/06/11 09:05:47;;;;;;;4.45;3.28;;;21.50;96.80;;;;;;5073059;28;20063;-88
2022/06/11 09:08:34;;;;;;;4.70;3.60;;;21.60;96.30;;;;;;5055939;28;20481;-87
2022/06/11 09:11:15;;;;;;;5.38;3.50;;;21.70;95.60;;;;;;5055179;28;20036;-88
2022/06/11 09:14:05;;;;;;;4.20;3.55;;;21.80;94.40;;;;;;5073032;28;20107;-87
2022/06/11 09:17:17;;;;;;;5.32;3.53;;;21.80;94.50;;;;;;5055259;28;20037;-88
2022/06/11 09:19:54;;;;;;;3.97;2.63;;;21.90;94.40;;;;;;5055103;28;20017;-87
2022/06/11 09:22:45;;;;;;;6.40;3.17;;;21.90;91.50;;;;;;5073198;28;20350;-88
2022/06/11 09:25:21;;;;;;;4.22;2.10;;;22.00;92.50;;;;;;5054806;28;20115;-88
2022/06/11 09:27:50;;;;;;;5.63;2.42;;;22.00;90.40;;;;;;5054867;28;20043;-89
2022/06/11 09:30:53;;;;;;;3.40;2.20;;;22.10;89.30;;;;;;5055050;28;20032;-89
2022/06/11 09:33:40;;;;;;;5.25;2.33;;;22.20;90.80;;;;;;5054747;28;20071;-89
2022/06/11 09:36:11;;;;;;;3.90;1.90;;;22.30;87.70;;;;;;5057992;28;20028;-88
2022/06/11 09:39:13;;;;;;;3.25;1.83;;;22.40;86.70;;;;;;5058558;28;20024;-89
2022/06/11 09:41:56;;;;;;;3.92;1.50;;;22.70;84.20;;;;;;5076474;28;20020;-88
2022/06/11 09:44:45;;;;;;;3.78;2.10;;;22.90;84.00;;;;;;5058425;28;20016;-88
2022/06/11 09:47:27;;;;;;;2.88;1.45;;;23.10;81.80;;;;;;5076568;28;20028;-89
2022/06/11 09:50:21;;;;;;;2.35;1.60;;;23.10;82.80;;;;;;5058296;28;20568;-89
2022/06/11 09:53:11;;;;;;;3.30;1.87;;;23.30;82.90;;;;;;5076579;28;20111;-88
2022/06/11 09:56:14;;;;;;;3.03;1.63;;;23.20;78.00;;;;;;5058195;28;20028;-89
2022/06/11 09:59:18;;;;;;;3.63;1.38;;;23.10;78.40;;;;;;5008099;28;20365;-88
2022/06/11 10:01:45;;;;;;;;;;;23.30;81.90;;;;;;5058438;28;20362;-88
2022/06/11 10:04:13;;;;;;;;;;;23.40;81.30;;;;;;5076434;28;19944;-88
2022/06/11 10:06:40;;;;;;;;;;;23.50;78.90;;;;;;5076479;28;19905;-88
2022/06/11 10:09:15;;;;;;;;;;;23.60;82.50;;;;;;5076332;28;19904;-88
2022/06/11 10:11:52;;;;;;;;;;;23.70;82.40;;;;;;5058430;28;19905;-88
2022/06/11 10:14:29;;;;;;;;;;;23.90;81.20;;;;;;5076264;28;19932;-88
2022/06/11 10:17:01;;;;;;;;;;;23.90;80.00;;;;;;5058286;28;19915;-88
2022/06/11 10:19:26;;;;;;;;;;;23.90;78.60;;;;;;5076182;28;19904;-88
2022/06/11 10:21:59;;;;;;;;;;;23.90;78.90;;;;;;5058203;28;19911;-88
2022/06/11 10:24:26;;;;;;;;;;;23.90;76.90;;;;;;5076083;28;19912;-88
2022/06/11 10:26:54;;;;;;;;;;;23.80;77.80;;;;;;5058103;28;19991;-88
2022/06/11 10:29:20;;;;;;;;;;;23.60;75.10;;;;;;5076199;28;19951;-88
2022/06/11 10:31:48;;;;;;;;;;;23.40;76.30;;;;;;5057975;28;19905;-88
2022/06/11 10:34:21;;;;;;;;;;;23.20;76.10;;;;;;5076231;28;19905;-89
2022/06/11 10:36:56;;;;;;;;;;;23.20;76.70;;;;;;5075689;28;19980;-88
2022/06/11 10:39:40;;;;;;;;;;;23.30;78.30;;;;;;5057880;28;19904;-88
2022/06/11 10:42:11;;;;;;;;;;;23.50;75.40;;;;;;5057830;28;19904;-88
2022/06/11 10:44:38;;;;;;;;;;;23.80;78.80;;;;;;5057475;28;19953;-88
2022/06/11 10:47:13;;;;;;;;;;;23.90;76.40;;;;;;5074668;28;19940;-87
2022/06/11 10:49:39;;;;;;;;;;;23.80;74.30;;;;;;5057598;28;19912;-88
2022/06/11 10:52:09;;;;;;;;;;;23.80;75.20;;;;;;5057613;28;19905;-88
2022/06/11 10:54:35;;;;;;;;;;;23.90;74.00;;;;;;5074230;28;19987;-88
2022/06/11 10:57:16;;;;;;;;;;;23.90;75.60;;;;;;5075714;28;20020;-88
2022/06/11 10:59:45;;;;;;;;;;;24.00;78.70;;;;;;5075444;28;19905;-88
2022/06/11 11:02:10;;;;;;;;;;;24.10;74.30;;;;;;5075375;28;19994;-88
2022/06/11 11:04:54;;;;;;;;;;;24.20;74.40;;;;;;5057334;28;19997;-87
2022/06/11 11:07:20;;;;;;;;;;;24.20;75.20;;;;;;5057455;28;19905;-87
2022/06/11 11:09:46;;;;;;;;;;;24.50;73.60;;;;;;5075300;28;20265;-88
2022/06/11 11:12:33;;;;;;;;;;;24.60;72.20;;;;;;5057253;28;19928;-87
2022/06/11 11:15:05;;;;;;;;;;;24.60;70.00;;;;;;5057126;28;19950;-88
2022/06/11 11:17:32;;;;;;;;;;;24.70;69.20;;;;;;5075259;28;19908;-87
2022/06/11 11:20:29;;;;;;;;;;;24.80;71.70;;;;;;5074979;28;19908;-87
2022/06/11 11:22:59;;;;;;;;;;;24.80;64.00;;;;;;5065743;28;19904;-88
2022/06/11 11:25:29;;;;;;;;;;;24.90;67.40;;;;;;5057535;28;19904;-87
2022/06/11 11:27:56;;;;;;;;;;;25.00;65.00;;;;;;5074881;28;19905;-88
2022/06/11 11:30:33;;;;;;;;;;;25.00;65.60;;;;;;5074827;28;20000;-87
2022/06/11 11:33:11;;;;;;;;;;;25.00;63.70;;;;;;5056786;28;19974;-88
2022/06/11 11:35:38;;;;;;;;;;;24.70;64.90;;;;;;5056678;28;19904;-87
2022/06/11 11:38:12;;;;;;;;;;;24.40;63.80;;;;;;5074710;28;19908;-88
2022/06/11 11:40:53;;;;;;;;;;;24.20;65.00;;;;;;5075024;28;19950;-88
2022/06/11 11:43:20;;;;;;;;;;;24.10;67.20;;;;;;5074679;28;19995;-88
2022/06/11 11:45:55;;;;;;;;;;;24.10;66.90;;;;;;5074514;28;19904;-88
2022/06/11 11:48:32;;;;;;;;;;;24.10;66.00;;;;;;5074611;28;19904;-88
2022/06/11 11:51:21;;;;;;;;;;;24.20;65.10;;;;;;5056501;28;19908;-88
2022/06/11 11:54:07;;;;;;;;;;;24.40;66.10;;;;;;5043148;28;20331;-87
2022/06/11 11:56:41;;;;;;;;;;;24.60;64.00;;;;;;5054794;28;20360;-86
2022/06/11 11:59:14;;;;;;;;;;;24.90;66.10;;;;;;5056145;28;19904;-87
2022/06/11 12:01:45;;;;;;;;;;;25.10;64.90;;;;;;5074683;28;20300;-87
2022/06/11 12:04:29;;;;;;;;;;;25.40;65.90;;;;;;5056334;28;20433;-88
2022/06/11 12:06:56;;;;;;;;;;;25.70;67.10;;;;;;5036205;28;19995;-88
2022/06/11 12:09:28;;;;;;;;;;;26.00;65.30;;;;;;5055996;28;20015;-89
2022/06/11 12:12:09;;;;;;;;;;;26.20;64.00;;;;;;5074887;28;20309;-88
2022/06/11 12:15:01;;;;;;;;;;;26.40;64.30;;;;;;5057063;28;19912;-87
2022/06/11 12:17:27;;;;;;;;;;;26.40;60.60;;;;;;5069931;28;19909;-86
2022/06/11 12:19:56;;;;;;;;;;;26.40;62.50;;;;;;5057826;28;20271;-86
2022/06/11 12:22:32;;;;;;;;;;;26.30;58.90;;;;;;5057754;28;19983;-87
2022/06/11 12:24:59;;;;;;;;;;;26.10;60.30;;;;;;5074937;28;19919;-86
2022/06/11 12:27:27;;;;;;;;;;;26.00;63.20;;;;;;5074846;28;20345;-86
2022/06/11 12:29:56;;;;;;;;;;;26.00;61.20;;;;;;5057606;28;19991;-87
2022/06/11 12:32:24;;;;;;;;;;;26.00;61.00;;;;;;5073394;28;20318;-86
2022/06/11 12:34:53;;;;;;;;;;;25.80;60.60;;;;;;5056663;28;20046;-87
2022/06/11 12:37:36;;;;;;;;;;;25.70;60.50;;;;;;5074995;28;20053;-87
2022/06/11 12:40:20;;;;;;;;;;;25.60;58.80;;;;;;5074317;28;19904;-87
2022/06/11 12:42:50;;;;;;;;;;;25.30;59.40;;;;;;5074064;28;19905;-86
2022/06/11 12:45:24;;;;;;;;;;;25.20;61.30;;;;;;5073829;28;19904;-86
2022/06/11 12:48:08;;;;;;;;;;;25.30;59.60;;;;;;5074025;28;19983;-86
2022/06/11 12:50:34;;;;;;;;;;;25.30;60.20;;;;;;5074066;28;19904;-86
2022/06/11 12:53:02;;;;;;;;;;;25.50;61.00;;;;;;5073587;28;19911;-87
2022/06/11 12:55:47;;;;;;;;;;;25.70;62.10;;;;;;5073642;28;19912;-86
2022/06/11 12:58:35;;;;;;;;;;;25.70;57.70;;;;;;5055646;28;20340;-87
2022/06/11 13:01:08;;;;;;;;;;;25.70;60.40;;;;;;5029623;28;19927;-87
2022/06/11 13:03:50;;;;;;;;;;;25.80;59.00;;;;;;5074421;28;19905;-86
2022/06/11 13:06:25;;;;;;;;;;;25.90;59.30;;;;;;5055745;28;20345;-86
2022/06/11 13:09:10;;;;;;;;;;;26.00;58.00;;;;;;5073855;28;19905;-85
2022/06/11 13:11:41;;;;;;;;;;;26.00;54.10;;;;;;5077847;28;19911;-86
2022/06/11 13:14:37;;;;;;;;;;;25.90;57.40;;;;;;5078019;28;20003;-86
2022/06/11 13:17:08;;;;;;;;;;;26.10;57.40;;;;;;5038789;28;19908;-86
2022/06/11 13:19:45;;;;;;;;;;;26.50;55.80;;;;;;5059778;28;19908;-86
2022/06/11 13:22:31;;;;;;;;;;;26.70;56.30;;;;;;5077568;28;19904;-86
2022/06/11 13:24:57;;;;;;;;;;;26.60;56.30;;;;;;5026049;28;19904;-86
2022/06/11 13:27:34;;;;;;;;;;;26.50;55.50;;;;;;5059460;28;19905;-86
2022/06/11 13:30:00;;;;;;;;;;;26.50;56.70;;;;;;5059987;28;19970;-86
2022/06/11 13:32:44;;;;;;;;;;;26.50;56.70;;;;;;5077361;28;20341;-85
2022/06/11 13:35:13;;;;;;;;;;;26.40;56.00;;;;;;5059711;28;19904;-86
2022/06/11 13:37:55;;;;;;;;;;;26.30;54.80;;;;;;5059777;28;19912;-85
2022/06/11 13:40:24;;;;;;;;;;;26.00;57.30;;;;;;5077074;28;19910;-85